createdAt,value
2018-12-20T00:00:19.785Z,95977.06
2018-12-20T00:02:48.316Z,95974.94
2018-12-20T00:05:16.507Z,95968.99
2018-12-20T00:07:44.801Z,95979.38
2018-12-20T00:10:12.980Z,95973.51
2018-12-20T00:12:41.524Z,95982.17
2018-12-20T00:15:09.982Z,95982.09
2018-12-20T00:17:43.791Z,95974.30
2018-12-20T00:20:11.923Z,95982.55
2018-12-20T00:22:40.182Z,95986.31
2018-12-20T00:25:09.654Z,95981.58
2018-12-20T00:27:37.878Z,95984.64
2018-12-20T00:30:06.219Z,95993.31
2018-12-20T00:32:34.501Z,95996.67
2018-12-20T00:35:02.943Z,95995.89
2018-12-20T00:37:31.223Z,95995.55
2018-12-20T00:40:06.249Z,96000.39
2018-12-20T00:42:29.793Z,95996.94
2018-12-20T00:44:58.731Z,96005.34
2018-12-20T00:47:27.054Z,96008.02
2018-12-20T00:49:55.749Z,96006.50
2018-12-20T00:52:23.967Z,96011.42
2018-12-20T00:54:52.136Z,96010.41
2018-12-20T00:57:20.359Z,96007.70
2018-12-20T00:59:48.717Z,96011.67
2018-12-20T01:02:16.990Z,96011.69
2018-12-20T01:04:45.214Z,96019.18
2018-12-20T01:07:13.474Z,96015.59
2018-12-20T01:09:41.693Z,96009.88
2018-12-20T01:12:09.948Z,96007.70
2018-12-20T01:14:45.174Z,96012.54
2018-12-20T01:17:08.551Z,96004.44
2018-12-20T01:19:36.757Z,96004.05
2018-12-20T01:22:04.932Z,96007.57
2018-12-20T01:24:33.226Z,96008.81
2018-12-20T01:27:01.443Z,96001.20
2018-12-20T01:29:29.651Z,96002.67
2018-12-20T01:31:57.813Z,95995.76
2018-12-20T01:34:26.058Z,95995.52
2018-12-20T01:36:54.564Z,95993.19
2018-12-20T01:39:23.072Z,95994.39
2018-12-20T01:41:51.391Z,95995.13
2018-12-20T01:44:19.641Z,95990.20
2018-12-20T01:46:47.893Z,95989.16
2018-12-20T01:49:16.147Z,95977.86
2018-12-20T01:51:44.655Z,95981.20
2018-12-20T01:54:12.936Z,95975.47
2018-12-20T01:56:41.392Z,95968.27
2018-12-20T01:59:09.822Z,95969.06
2018-12-20T02:01:38.270Z,95961.58
2018-12-20T02:04:06.800Z,95963.69
2018-12-20T02:06:35.199Z,95968.91
2018-12-20T02:09:05.902Z,95954.81
2018-12-20T02:11:34.190Z,95958.52
2018-12-20T02:14:02.501Z,95955.71
2018-12-20T02:16:30.712Z,95957.36
2018-12-20T02:18:58.961Z,95955.02
2018-12-20T02:21:27.164Z,95953.63
2018-12-20T02:23:55.500Z,95955.69
2018-12-20T02:26:24.034Z,95961.52
2018-12-20T02:28:52.346Z,95960.02
2018-12-20T02:31:20.656Z,95963.75
2018-12-20T02:33:48.971Z,95961.67
2018-12-20T02:36:17.358Z,95962.35
2018-12-20T02:38:46.315Z,95957.27
2018-12-20T02:41:15.253Z,95954.06
2018-12-20T02:43:43.440Z,95951.59
2018-12-20T02:46:11.648Z,95954.11
2018-12-20T02:48:39.906Z,95948.38
2018-12-20T02:51:08.065Z,95963.31
2018-12-20T02:53:36.253Z,95965.91
2018-12-20T02:56:04.615Z,95968.52
2018-12-20T02:58:32.901Z,95970.88
2018-12-20T03:01:01.004Z,95975.25
2018-12-20T03:03:29.088Z,95971.08
2018-12-20T03:05:57.910Z,95974.08
2018-12-20T03:08:26.162Z,95970.39
2018-12-20T03:10:54.451Z,95976.19
2018-12-20T03:13:22.554Z,95970.93
2018-12-20T03:15:50.750Z,95973.19
2018-12-20T03:18:19.131Z,95975.43
2018-12-20T03:20:47.554Z,95975.11
2018-12-20T03:23:15.763Z,95973.18
2018-12-20T03:25:43.945Z,95977.31
2018-12-20T03:28:12.188Z,95979.04
2018-12-20T03:30:40.522Z,95966.69
2018-12-20T03:33:10.490Z,95971.56
2018-12-20T03:35:39.011Z,95979.03
2018-12-20T03:38:07.204Z,95973.77
2018-12-20T03:40:35.715Z,95969.03
2018-12-20T03:43:04.232Z,95971.81
2018-12-20T03:45:32.576Z,95970.16
2018-12-20T03:48:00.989Z,95968.25
2018-12-20T03:50:29.422Z,95981.09
2018-12-20T03:52:57.801Z,95977.37
2018-12-20T03:55:26.029Z,95972.08
2018-12-20T03:57:54.222Z,95935.09
2018-12-20T04:00:22.452Z,95969.56
2018-12-20T04:02:50.687Z,95978.14
2018-12-20T04:05:19.160Z,95967.10
2018-12-20T04:07:47.384Z,95967.95
2018-12-20T04:10:16.410Z,95962.66
2018-12-20T04:12:44.826Z,95971.59
2018-12-20T04:15:13.436Z,95973.91
2018-12-20T04:17:41.618Z,95982.32
2018-12-20T04:20:10.302Z,95978.41
2018-12-20T04:22:38.671Z,95979.41
2018-12-20T04:25:07.030Z,95982.16
2018-12-20T04:27:38.626Z,95979.20
2018-12-20T04:30:07.342Z,95979.73
2018-12-20T04:32:36.333Z,95989.01
2018-12-20T04:35:05.555Z,95985.34
2018-12-20T04:37:34.068Z,95990.56
2018-12-20T04:40:02.455Z,95989.19
2018-12-20T04:42:30.829Z,95998.82
2018-12-20T04:44:59.106Z,95995.05
2018-12-20T04:47:28.111Z,96004.80
2018-12-20T04:49:56.762Z,96005.91
2018-12-20T04:52:25.685Z,95999.37
2018-12-20T04:54:53.826Z,95997.65
2018-12-20T04:57:22.905Z,95998.05
2018-12-20T04:59:52.905Z,95996.22
2018-12-20T05:02:22.057Z,96009.65
2018-12-20T05:04:50.485Z,96009.71
2018-12-20T05:07:18.758Z,96004.97
2018-12-20T05:09:47.240Z,95984.75
2018-12-20T05:12:15.475Z,96007.87
2018-12-20T05:14:43.809Z,96007.93
2018-12-20T05:17:12.367Z,96003.08
2018-12-20T05:19:40.852Z,96012.72
2018-12-20T05:22:09.258Z,96015.58
2018-12-20T05:24:37.528Z,96013.47
2018-12-20T05:27:05.794Z,96013.01
2018-12-20T05:29:34.249Z,96013.34
2018-12-20T05:32:02.506Z,96012.06
2018-12-20T05:34:30.810Z,96020.88
2018-12-20T05:37:01.942Z,96019.34
2018-12-20T05:39:30.323Z,96009.48
2018-12-20T05:41:58.622Z,96022.80
2018-12-20T05:44:27.850Z,96019.40
2018-12-20T05:46:56.083Z,96026.95
2018-12-20T05:49:25.770Z,96023.47
2018-12-20T05:51:54.561Z,96027.51
2018-12-20T05:54:24.829Z,96029.27
2018-12-20T05:56:58.688Z,96043.25
2018-12-20T05:59:28.596Z,96038.77
2018-12-20T06:01:57.699Z,96032.23
2018-12-20T06:04:26.225Z,96035.73
2018-12-20T06:06:55.016Z,96031.93
2018-12-20T06:09:24.019Z,96021.36
2018-12-20T06:14:36.901Z,96024.77
2018-12-20T06:17:07.941Z,96017.27
2018-12-20T06:19:36.413Z,96022.28
2018-12-20T06:22:04.737Z,96020.43
2018-12-20T06:24:34.959Z,96019.45
2018-12-20T06:27:07.948Z,96023.16
2018-12-20T06:29:38.825Z,96019.09
2018-12-20T06:32:07.888Z,96027.91
2018-12-20T06:34:36.045Z,96021.69
2018-12-20T06:37:04.202Z,96026.91
2018-12-20T06:39:33.324Z,96038.37
2018-12-20T06:42:01.644Z,96024.34
2018-12-20T06:44:29.778Z,96036.41
2018-12-20T06:46:57.885Z,96037.21
2018-12-20T06:49:34.773Z,96037.35
2018-12-20T06:52:09.497Z,96044.57
2018-12-20T06:54:42.357Z,96060.24
2018-12-20T06:57:13.393Z,96037.82
2018-12-20T06:59:45.690Z,96056.32
2018-12-20T07:02:14.089Z,96055.23
2018-12-20T07:04:42.669Z,96056.70
2018-12-20T07:07:11.250Z,96065.80
2018-12-20T07:09:39.582Z,96064.52
2018-12-20T07:12:07.805Z,96073.18
2018-12-20T07:14:42.848Z,96070.62
2018-12-20T07:17:14.319Z,96079.58
2018-12-20T07:19:45.212Z,96072.05
2018-12-20T07:22:13.626Z,96079.38
2018-12-20T07:24:42.062Z,96073.56
2018-12-20T07:27:10.492Z,96077.09
2018-12-20T07:29:39.802Z,96086.84
2018-12-20T07:32:08.198Z,96078.00
2018-12-20T07:34:36.851Z,96080.95
2018-12-20T07:37:05.145Z,96083.60
2018-12-20T07:39:33.452Z,96087.42
2018-12-20T07:42:02.481Z,96077.06
2018-12-20T07:44:34.079Z,96086.49
2018-12-20T07:47:07.753Z,96081.09
2018-12-20T07:49:35.988Z,96084.09
2018-12-20T07:52:07.086Z,96087.39
2018-12-20T07:54:35.476Z,96091.52
2018-12-20T07:57:06.625Z,96088.30
2018-12-20T07:59:37.200Z,96080.02
2018-12-20T08:02:06.164Z,96090.19
2018-12-20T08:04:35.173Z,96091.17
2018-12-20T08:07:03.487Z,96104.22
2018-12-20T08:09:31.845Z,96102.84
2018-12-20T08:12:01.305Z,96098.51
2018-12-20T08:14:29.479Z,96110.12
2018-12-20T08:16:58.009Z,96098.92
2018-12-20T08:19:26.157Z,96100.47
2018-12-20T08:21:56.507Z,96093.34
2018-12-20T08:24:24.606Z,96102.55
2018-12-20T08:26:57.232Z,96111.94
2018-12-20T08:29:26.128Z,96105.73
2018-12-20T08:31:55.336Z,96107.11
2018-12-20T08:34:25.475Z,96096.73
2018-12-20T08:36:55.133Z,96092.26
2018-12-20T08:39:23.351Z,96083.36
2018-12-20T08:41:52.060Z,96100.52
2018-12-20T08:44:22.611Z,96094.85
2018-12-20T08:46:54.467Z,96084.65
2018-12-20T08:49:21.213Z,96091.31
2018-12-20T08:51:50.373Z,96082.84
2018-12-20T08:54:18.522Z,96085.52
2018-12-20T08:56:46.670Z,96090.68
2018-12-20T08:59:15.996Z,96093.97
2018-12-20T09:01:46.436Z,96089.69
2018-12-20T09:04:16.251Z,96094.38
2018-12-20T09:06:44.713Z,96087.58
2018-12-20T09:09:14.894Z,96087.44
2018-12-20T09:11:46.874Z,96094.67
2018-12-20T09:14:17.432Z,96083.39
2018-12-20T09:16:50.004Z,96089.95
2018-12-20T09:19:19.120Z,96075.01
2018-12-20T09:21:50.987Z,96077.88
2018-12-20T09:24:23.012Z,96073.53
2018-12-20T09:26:54.660Z,96082.84
2018-12-20T09:29:33.170Z,96082.49
2018-12-20T09:32:06.277Z,96082.41
2018-12-20T09:34:34.720Z,96070.28
2018-12-20T09:37:03.719Z,96072.93
2018-12-20T09:39:34.941Z,96064.42
2018-12-20T09:42:03.157Z,96061.02
2018-12-20T09:47:18.870Z,96065.15
2018-12-20T09:49:48.833Z,96059.17
2018-12-20T09:52:24.906Z,96048.13
2018-12-20T09:54:57.589Z,96041.80
2018-12-20T09:57:30.334Z,96041.42
2018-12-20T09:59:58.770Z,96050.26
2018-12-20T10:02:26.891Z,96040.63
2018-12-20T10:04:55.287Z,96031.36
2018-12-20T10:07:27.814Z,96028.07
2018-12-20T10:09:56.456Z,96025.99
2018-12-20T10:12:24.712Z,96033.05
2018-12-20T10:14:53.076Z,96035.83
2018-12-20T10:17:23.574Z,96016.11
2018-12-20T10:19:52.787Z,96013.98
2018-12-20T10:22:21.616Z,96019.62
2018-12-20T10:24:52.212Z,96025.48
2018-12-20T10:27:20.435Z,96022.91
2018-12-20T10:29:52.414Z,96024.75
2018-12-20T10:32:20.747Z,96017.55
2018-12-20T10:34:48.939Z,96018.91
2018-12-20T10:37:17.252Z,96011.92
2018-12-20T10:39:46.296Z,96013.01
2018-12-20T10:42:14.451Z,96009.72
2018-12-20T10:44:43.129Z,96007.81
2018-12-20T10:47:17.382Z,95884.20
2018-12-20T10:49:45.565Z,96006.20
2018-12-20T10:52:13.720Z,96003.35
2018-12-20T10:54:42.637Z,95995.77
2018-12-20T10:57:13.398Z,95987.44
2018-12-20T10:59:42.862Z,95988.38
2018-12-20T11:02:16.632Z,95980.28
2018-12-20T11:04:50.179Z,95987.20
2018-12-20T11:07:24.803Z,95980.95
2018-12-20T11:09:58.814Z,95978.85
2018-12-20T11:12:32.243Z,95975.04
2018-12-20T11:15:00.435Z,95966.03
2018-12-20T11:17:37.050Z,95964.73
2018-12-20T11:20:01.038Z,95959.81
2018-12-20T11:22:29.760Z,95959.29
2018-12-20T11:24:59.165Z,95956.45
2018-12-20T11:27:27.551Z,95836.34
2018-12-20T11:29:56.040Z,95974.66
2018-12-20T11:32:24.982Z,95956.83
2018-12-20T11:34:54.043Z,95956.70
2018-12-20T11:37:22.424Z,95955.00
2018-12-20T11:39:59.206Z,95962.42
2018-12-20T11:42:23.468Z,95956.22
2018-12-20T11:44:52.300Z,95969.91
2018-12-20T11:47:26.023Z,95955.91
2018-12-20T11:49:54.268Z,95947.32
2018-12-20T11:52:22.595Z,95941.66
2018-12-20T11:54:54.128Z,95940.44
2018-12-20T11:57:22.403Z,95951.25
2018-12-20T11:59:52.083Z,95962.30
2018-12-20T12:02:24.674Z,95958.45
2018-12-20T12:04:51.387Z,95960.89
2018-12-20T12:07:19.710Z,95952.39
2018-12-20T12:09:48.468Z,95956.73
2018-12-20T12:12:16.658Z,95950.06
2018-12-20T12:14:44.990Z,95947.27
2018-12-20T12:17:13.191Z,95947.42
2018-12-20T12:19:41.432Z,95951.00
2018-12-20T12:22:09.560Z,95959.13
2018-12-20T12:24:37.787Z,95964.20
2018-12-20T12:27:06.424Z,95955.30
2018-12-20T12:29:34.949Z,95953.86
2018-12-20T12:32:03.203Z,95948.73
2018-12-20T12:34:31.512Z,95952.55
2018-12-20T12:36:59.674Z,95961.75
2018-12-20T12:39:28.098Z,95954.78
2018-12-20T12:41:56.212Z,95956.02
2018-12-20T12:44:24.376Z,95949.05
2018-12-20T12:46:53.029Z,95953.20
2018-12-20T12:49:24.070Z,95949.69
2018-12-20T12:51:53.219Z,95948.73
2018-12-20T12:54:21.969Z,95937.52
2018-12-20T12:56:50.729Z,95942.81
2018-12-20T12:59:19.115Z,95952.36
2018-12-20T13:01:48.016Z,95946.70
2018-12-20T13:04:16.265Z,95936.78
2018-12-20T13:06:44.998Z,95939.77
2018-12-20T13:09:13.145Z,95947.02
2018-12-20T13:11:41.320Z,95964.38
2018-12-20T13:14:09.611Z,95963.98
2018-12-20T13:16:38.707Z,95963.63
2018-12-20T13:19:07.369Z,95961.01
2018-12-20T13:21:36.051Z,95964.95
2018-12-20T13:24:04.659Z,95960.38
2018-12-20T13:26:32.898Z,95950.77
2018-12-20T13:29:01.014Z,95952.98
2018-12-20T13:31:29.224Z,95966.80
2018-12-20T13:33:57.331Z,95954.95
2018-12-20T13:36:25.456Z,95958.43
2018-12-20T13:38:54.232Z,95962.95
2018-12-20T13:41:22.670Z,95954.52
2018-12-20T13:43:50.836Z,95961.28
2018-12-20T13:46:19.036Z,95971.64
2018-12-20T13:48:47.157Z,95976.63
2018-12-20T13:51:15.291Z,95972.98
2018-12-20T13:53:43.480Z,95965.38
2018-12-20T13:56:11.533Z,95963.31
2018-12-20T13:58:39.805Z,95963.91
2018-12-20T14:01:08.065Z,95963.84
2018-12-20T14:03:36.617Z,95961.11
2018-12-20T14:06:06.586Z,95963.34
2018-12-20T14:08:34.809Z,95964.33
2018-12-20T14:11:03.275Z,95968.76
2018-12-20T14:13:32.162Z,95975.16
2018-12-20T14:16:00.730Z,95972.66
2018-12-20T14:18:31.174Z,95975.17
2018-12-20T14:21:00.589Z,95966.34
2018-12-20T14:23:29.284Z,95964.77
2018-12-20T14:25:58.607Z,95974.37
2018-12-20T14:28:27.293Z,95972.87
2018-12-20T14:30:55.604Z,95965.76
2018-12-20T14:33:23.827Z,95970.22
2018-12-20T14:38:35.667Z,95959.88
2018-12-20T14:41:03.937Z,95954.73
2018-12-20T14:43:32.351Z,95960.86
2018-12-20T14:46:00.535Z,95960.87
2018-12-20T14:48:30.150Z,95961.48
2018-12-20T14:50:59.756Z,95959.27
2018-12-20T14:53:28.843Z,95959.05
2018-12-20T14:55:57.527Z,95952.76
2018-12-20T14:58:25.850Z,95955.20
2018-12-20T15:00:55.555Z,95951.25
2018-12-20T15:03:24.730Z,95954.25
2018-12-20T15:05:54.181Z,95959.63
2018-12-20T15:08:23.050Z,95965.06
2018-12-20T15:10:51.812Z,95973.81
2018-12-20T15:13:20.498Z,95979.13
2018-12-20T15:15:49.361Z,95932.05
2018-12-20T15:18:18.241Z,95986.80
2018-12-20T15:20:46.973Z,95972.63
2018-12-20T15:23:16.067Z,95973.23
2018-12-20T15:25:46.063Z,95979.47
2018-12-20T15:28:15.138Z,95991.42
2018-12-20T15:30:44.902Z,95993.71
2018-12-20T15:33:14.317Z,96006.10
2018-12-20T15:35:43.268Z,96009.09
2018-12-20T15:38:12.270Z,96012.36
2018-12-20T15:40:42.182Z,96012.30
2018-12-20T15:43:10.961Z,96022.41
2018-12-20T15:45:42.718Z,96023.48
2018-12-20T15:48:11.464Z,96027.69
2018-12-20T15:50:39.887Z,96027.43
2018-12-20T15:53:08.696Z,96025.86
2018-12-20T15:55:37.306Z,96031.89
2018-12-20T15:58:06.651Z,96030.83
2018-12-20T16:00:35.280Z,96034.03
2018-12-20T16:03:03.867Z,96037.76
2018-12-20T16:05:34.563Z,96020.55
2018-12-20T16:08:08.086Z,96029.84
2018-12-20T16:10:36.830Z,96033.77
2018-12-20T16:13:05.254Z,96043.48
2018-12-20T16:15:33.448Z,96037.07
2018-12-20T16:18:02.380Z,96043.05
2018-12-20T16:20:30.900Z,96056.84
2018-12-20T16:23:00.360Z,96053.50
2018-12-20T16:25:29.421Z,96058.73
2018-12-20T16:27:57.850Z,96060.68
2018-12-20T16:30:27.851Z,96060.74
2018-12-20T16:32:56.241Z,96065.16
2018-12-20T16:35:24.485Z,96066.41
2018-12-20T16:37:52.710Z,96065.65
2018-12-20T16:40:21.633Z,96071.31
2018-12-20T16:42:50.090Z,96081.29
2018-12-20T16:45:18.446Z,96066.69
2018-12-20T16:47:47.296Z,96080.11
2018-12-20T16:50:16.460Z,96077.11
2018-12-20T16:52:44.676Z,96092.35
2018-12-20T16:55:13.343Z,96085.33
2018-12-20T16:57:41.970Z,96087.30
2018-12-20T17:00:13.903Z,96089.27
2018-12-20T17:02:42.579Z,96070.95
2018-12-20T17:05:10.879Z,96067.52
2018-12-20T17:07:39.470Z,96071.45
2018-12-20T17:10:08.533Z,96080.39
2018-12-20T17:12:36.894Z,96074.73
2018-12-20T17:15:07.064Z,96070.39
2018-12-20T17:17:35.384Z,96070.67
2018-12-20T17:20:04.944Z,96073.96
2018-12-20T17:22:33.374Z,96079.83
2018-12-20T17:25:01.456Z,96070.74
2018-12-20T17:27:30.233Z,96075.21
2018-12-20T17:29:58.513Z,96068.70
2018-12-20T17:32:27.284Z,96066.02
2018-12-20T17:34:56.000Z,96080.25
2018-12-20T17:37:24.773Z,96067.03
2018-12-20T17:39:53.378Z,96058.31
2018-12-20T17:42:21.844Z,96069.52
2018-12-20T17:44:50.147Z,96062.41
2018-12-20T17:47:20.144Z,96070.05
2018-12-20T17:49:48.701Z,96066.19
2018-12-20T17:52:17.064Z,96062.85
2018-12-20T17:54:49.316Z,96060.62
2018-12-20T17:57:17.573Z,96071.36
2018-12-20T17:59:45.788Z,96071.66
2018-12-20T18:02:14.618Z,96075.23
2018-12-20T18:04:43.083Z,96065.93
2018-12-20T18:07:12.108Z,96071.45
2018-12-20T18:09:41.144Z,96067.53
2018-12-20T18:12:10.412Z,96075.34
2018-12-20T18:14:41.449Z,96076.50
2018-12-20T18:17:11.043Z,96083.98
2018-12-20T18:19:39.646Z,96081.86
2018-12-20T18:22:09.789Z,96082.34
2018-12-20T18:24:39.889Z,96078.47
2018-12-20T18:27:10.095Z,96073.03
2018-12-20T18:29:38.818Z,96075.03
2018-12-20T18:32:08.490Z,96068.16
2018-12-20T18:34:37.403Z,96068.76
2018-12-20T18:37:06.498Z,96065.64
2018-12-20T18:39:35.927Z,96061.59
2018-12-20T18:42:07.768Z,96065.30
2018-12-20T18:44:36.086Z,96083.05
2018-12-20T18:47:04.490Z,96095.61
2018-12-20T18:49:33.131Z,96089.31
2018-12-20T18:52:01.359Z,96075.19
2018-12-20T18:54:29.661Z,96088.75
2018-12-20T18:56:57.878Z,96087.09
2018-12-20T18:59:26.718Z,96080.84
2018-12-20T19:01:55.188Z,96089.09
2018-12-20T19:04:23.375Z,96082.58
2018-12-20T19:06:51.728Z,96094.11
2018-12-20T19:09:21.536Z,96095.23
2018-12-20T19:11:50.908Z,96094.75
2018-12-20T19:14:19.550Z,96088.50
2018-12-20T19:16:49.585Z,96084.39
2018-12-20T19:19:18.495Z,96083.91
2018-12-20T19:21:48.163Z,96083.66
2018-12-20T19:24:18.441Z,96094.34
2018-12-20T19:26:48.394Z,96095.91
2018-12-20T19:29:19.394Z,96099.04
2018-12-20T19:31:50.374Z,96110.62
2018-12-20T19:34:18.874Z,96103.87
2018-12-20T19:36:48.140Z,96106.05
2018-12-20T19:39:18.264Z,96091.89
2018-12-20T19:41:47.525Z,96100.64
2018-12-20T19:44:15.855Z,96089.97
2018-12-20T19:46:44.152Z,96093.56
2018-12-20T19:49:12.360Z,96104.42
2018-12-20T19:51:40.571Z,96113.42
2018-12-20T19:54:08.737Z,96112.09
2018-12-20T19:56:37.678Z,96104.34
2018-12-20T19:59:06.286Z,96116.79
2018-12-20T20:01:34.872Z,96118.52
2018-12-20T20:04:03.427Z,96117.13
2018-12-20T20:06:31.597Z,96113.19
2018-12-20T20:09:00.071Z,96120.34
2018-12-20T20:11:29.590Z,96117.86
2018-12-20T20:13:58.877Z,96117.91
2018-12-20T20:16:27.284Z,96126.86
2018-12-20T20:18:56.669Z,96125.87
2018-12-20T20:21:24.864Z,96116.58
2018-12-20T20:23:53.598Z,96114.39
2018-12-20T20:26:23.055Z,96112.90
2018-12-20T20:28:51.262Z,96130.67
2018-12-20T20:31:19.582Z,96123.11
2018-12-20T20:33:48.395Z,96119.67
2018-12-20T20:36:16.591Z,96117.86
2018-12-20T20:38:44.716Z,96114.16
2018-12-20T20:41:14.487Z,96122.54
2018-12-20T20:43:43.087Z,96125.31
2018-12-20T20:46:13.003Z,96128.44
2018-12-20T20:48:41.590Z,96127.73
2018-12-20T20:51:10.128Z,96128.42
2018-12-20T20:53:38.393Z,96127.73
2018-12-20T20:56:06.630Z,96131.89
2018-12-20T20:58:35.100Z,96130.96
2018-12-20T21:01:04.623Z,96122.53
2018-12-20T21:03:34.009Z,96131.30
2018-12-20T21:06:03.343Z,96122.05
2018-12-20T21:08:32.466Z,96127.89
2018-12-20T21:11:00.778Z,96127.83
2018-12-20T21:13:29.098Z,96132.29
2018-12-20T21:15:58.134Z,96132.56
2018-12-20T21:18:26.731Z,96130.10
2018-12-20T21:20:55.053Z,96129.41
2018-12-20T21:23:23.201Z,96127.22
2018-12-20T21:25:51.475Z,96123.19
2018-12-20T21:28:19.981Z,96119.42
2018-12-20T21:30:48.352Z,96118.92
2018-12-20T21:33:20.396Z,96124.13
2018-12-20T21:35:48.628Z,96123.58
2018-12-20T21:38:17.105Z,96118.02
2018-12-20T21:40:46.110Z,96113.33
2018-12-20T21:43:14.889Z,96119.56
2018-12-20T21:45:47.941Z,96121.87
2018-12-20T21:48:16.553Z,96124.62
2018-12-20T21:50:46.054Z,96117.81
2018-12-20T21:53:21.019Z,96112.95
2018-12-20T21:55:51.099Z,96110.62
2018-12-20T21:58:24.670Z,96114.16
2018-12-20T22:00:53.474Z,96102.84
2018-12-20T22:03:23.116Z,96110.19
2018-12-20T22:05:51.344Z,96111.22
2018-12-20T22:08:19.972Z,96116.73
2018-12-20T22:10:48.206Z,96120.53
2018-12-20T22:13:17.732Z,96122.50
2018-12-20T22:15:45.883Z,96120.39
2018-12-20T22:18:14.013Z,96120.33
2018-12-20T22:20:47.301Z,96122.84
2018-12-20T22:23:12.431Z,96119.06
2018-12-20T22:25:40.609Z,96110.25
2018-12-20T22:28:08.720Z,96090.20
2018-12-20T22:30:37.403Z,96119.55
2018-12-20T22:33:05.573Z,96122.09
2018-12-20T22:35:33.802Z,96114.20
2018-12-20T22:38:01.917Z,96098.97
2018-12-20T22:40:30.064Z,96094.67
2018-12-20T22:42:58.209Z,96100.08
2018-12-20T22:45:26.489Z,96107.39
2018-12-20T22:47:54.754Z,96110.58
2018-12-20T22:50:22.895Z,96107.58
2018-12-20T22:52:51.039Z,96100.58
2018-12-20T22:55:19.258Z,96095.12
2018-12-20T22:57:47.506Z,96090.50
2018-12-20T23:00:16.964Z,96091.67
2018-12-20T23:02:45.226Z,96100.50
2018-12-20T23:05:13.421Z,96100.70
2018-12-20T23:07:41.592Z,96095.95
2018-12-20T23:10:09.917Z,96102.56
2018-12-20T23:12:38.157Z,96094.61
2018-12-20T23:15:06.481Z,96097.78
2018-12-20T23:17:34.668Z,96100.95
2018-12-20T23:20:03.000Z,96096.08
2018-12-20T23:22:31.159Z,96087.20
2018-12-20T23:24:59.411Z,96079.35
2018-12-20T23:27:27.617Z,96090.27
2018-12-20T23:29:55.776Z,96104.88
2018-12-20T23:32:24.033Z,96108.66
2018-12-20T23:34:52.203Z,96096.15
2018-12-20T23:37:20.411Z,96096.55
2018-12-20T23:39:48.591Z,96087.61
2018-12-20T23:42:16.928Z,96092.78
2018-12-20T23:44:45.282Z,96087.14
2018-12-20T23:47:13.564Z,96086.09
2018-12-20T23:49:41.709Z,96086.94
2018-12-20T23:52:09.866Z,96088.59
2018-12-20T23:54:38.023Z,96099.11
2018-12-20T23:57:06.236Z,96096.38
2018-12-20T23:59:34.467Z,96101.30
